createdAt,value
2018-03-01T00:00:42.793Z,94.17
2018-03-01T00:01:42.086Z,94.17
2018-03-01T00:03:15.393Z,94.17
2018-03-01T00:04:16.259Z,94.17
2018-03-01T00:05:15.980Z,94.27
2018-03-01T00:06:15.748Z,94.17
2018-03-01T00:07:16.141Z,94.17
2018-03-01T00:08:15.916Z,94.17
2018-03-01T00:09:16.362Z,94.08
2018-03-01T00:10:16.333Z,94.08
2018-03-01T00:11:16.090Z,93.98
2018-03-01T00:12:16.356Z,94.08
2018-03-01T00:13:16.457Z,93.98
2018-03-01T00:14:16.231Z,93.98
2018-03-01T00:15:16.131Z,93.98
2018-03-01T00:16:15.962Z,93.89
2018-03-01T00:17:15.474Z,93.89
2018-03-01T00:18:16.200Z,93.89
2018-03-01T00:19:16.566Z,93.98
2018-03-01T00:20:16.282Z,93.98
2018-03-01T00:21:15.852Z,93.98
2018-03-01T00:22:15.678Z,93.89
2018-03-01T00:23:38.378Z,93.89
2018-03-01T00:24:39.208Z,93.98
2018-03-01T00:25:38.805Z,93.89
2018-03-01T00:26:38.754Z,93.79
2018-03-01T00:27:38.169Z,93.79
2018-03-01T00:28:38.839Z,93.79
2018-03-01T00:29:38.808Z,93.79
2018-03-01T00:30:39.670Z,93.89
2018-03-01T00:32:00.715Z,93.89
2018-03-01T00:33:01.915Z,93.79
2018-03-01T00:34:01.406Z,93.89
2018-03-01T00:35:01.877Z,93.79
2018-03-01T00:36:01.402Z,93.70
2018-03-01T00:37:01.801Z,93.61
2018-03-01T00:38:01.314Z,93.70
2018-03-01T00:39:00.968Z,93.61
2018-03-01T00:40:01.465Z,93.61
2018-03-01T00:41:01.227Z,93.61
2018-03-01T00:42:02.066Z,93.61
2018-03-01T00:43:02.025Z,93.70
2018-03-01T00:44:00.646Z,93.79
2018-03-01T00:45:01.283Z,93.70
2018-03-01T00:46:00.737Z,93.70
2018-03-01T00:47:01.168Z,93.70
2018-03-01T00:48:00.988Z,93.70
2018-03-01T00:49:01.504Z,93.70
2018-03-01T00:50:01.381Z,93.61
2018-03-01T00:51:01.030Z,93.61
2018-03-01T00:52:00.642Z,93.61
2018-03-01T00:53:02.797Z,93.70
2018-03-01T00:54:01.092Z,93.79
2018-03-01T00:55:00.812Z,93.79
2018-03-01T00:56:01.506Z,93.89
2018-03-01T00:57:01.011Z,93.79
2018-03-01T00:58:01.391Z,93.79
2018-03-01T00:59:01.278Z,93.89
2018-03-01T01:00:00.856Z,93.89
2018-03-01T01:01:23.546Z,93.89
2018-03-01T01:02:44.289Z,93.79
2018-03-01T01:03:45.183Z,93.70
2018-03-01T01:04:45.008Z,93.70
2018-03-01T01:05:44.700Z,93.70
2018-03-01T01:06:44.621Z,93.61
2018-03-01T01:07:45.051Z,93.61
2018-03-01T01:08:45.328Z,93.61
2018-03-01T01:10:06.084Z,93.61
2018-03-01T01:11:06.352Z,93.61
2018-03-01T01:12:07.058Z,93.51
2018-03-01T01:13:06.988Z,93.51
2018-03-01T01:14:06.764Z,93.61
2018-03-01T01:15:06.730Z,93.61
2018-03-01T01:16:06.814Z,93.61
2018-03-01T01:17:06.368Z,93.70
2018-03-01T01:18:06.159Z,93.70
2018-03-01T01:19:06.843Z,93.70
2018-03-01T01:20:06.615Z,93.70
2018-03-01T01:21:06.088Z,93.61
2018-03-01T01:22:07.012Z,93.61
2018-03-01T01:23:06.787Z,93.61
2018-03-01T01:24:27.841Z,93.61
2018-03-01T01:25:28.742Z,93.61
2018-03-01T01:26:28.517Z,93.61
2018-03-01T01:27:28.048Z,93.61
2018-03-01T01:28:49.914Z,93.61
2018-03-01T01:29:50.401Z,93.51
2018-03-01T01:31:11.609Z,93.51
2018-03-01T01:32:13.237Z,93.61
2018-03-01T01:33:11.935Z,93.61
2018-03-01T01:34:12.351Z,93.61
2018-03-01T01:35:11.712Z,93.70
2018-03-01T01:36:12.543Z,93.79
2018-03-01T01:37:12.299Z,93.79
2018-03-01T01:38:11.744Z,93.79
2018-03-01T01:39:55.363Z,93.70
2018-03-01T01:40:56.613Z,93.79
2018-03-01T01:41:56.721Z,93.89
2018-03-01T01:42:55.605Z,93.89
2018-03-01T01:44:17.770Z,93.98
2018-03-01T01:45:18.218Z,93.98
2018-03-01T01:46:18.101Z,94.08
2018-03-01T01:47:19.064Z,94.08
2018-03-01T01:48:17.786Z,93.98
2018-03-01T01:49:18.549Z,93.89
2018-03-01T01:50:18.453Z,93.98
2018-03-01T01:51:17.974Z,93.98
2018-03-01T01:52:18.836Z,94.08
2018-03-01T01:53:18.641Z,93.98
2018-03-01T01:54:18.377Z,93.98
2018-03-01T01:55:18.074Z,93.98
2018-03-01T01:56:17.676Z,93.98
2018-03-01T01:57:39.981Z,93.98
2018-03-01T01:58:40.884Z,93.98
2018-03-01T01:59:40.732Z,94.08
2018-03-01T02:00:40.026Z,93.98
2018-03-01T02:01:41.507Z,93.98
2018-03-01T02:02:40.065Z,93.98
2018-03-01T02:03:42.691Z,94.08
2018-03-01T02:04:40.371Z,94.08
2018-03-01T02:05:40.098Z,93.98
2018-03-01T02:06:40.775Z,93.98
2018-03-01T02:07:40.937Z,93.98
2018-03-01T02:08:40.589Z,94.08
2018-03-01T02:09:40.510Z,94.27
2018-03-01T02:10:40.334Z,94.27
2018-03-01T02:11:41.140Z,94.27
2018-03-01T02:12:40.744Z,94.27
2018-03-01T02:13:40.464Z,94.27
2018-03-01T02:14:39.604Z,94.17
2018-03-01T02:15:40.959Z,94.17
2018-03-01T02:16:40.851Z,94.17
2018-03-01T02:17:40.657Z,94.17
2018-03-01T02:19:48.364Z,94.17
2018-03-01T02:20:45.114Z,94.17
2018-03-01T02:21:45.615Z,94.27
2018-03-01T02:22:45.142Z,94.27
2018-03-01T02:23:44.751Z,94.36
2018-03-01T02:24:44.966Z,94.36
2018-03-01T02:25:44.202Z,94.45
2018-03-01T02:26:45.017Z,94.36
2018-03-01T02:27:44.725Z,94.45
2018-03-01T02:28:44.538Z,94.45
2018-03-01T02:29:44.968Z,94.45
2018-03-01T02:30:44.672Z,94.45
2018-03-01T02:31:45.441Z,94.55
2018-03-01T02:32:45.147Z,94.45
2018-03-01T02:33:45.413Z,94.55
2018-03-01T02:34:44.806Z,94.55
2018-03-01T02:35:45.312Z,94.55
2018-03-01T02:36:44.616Z,94.64
2018-03-01T02:37:45.339Z,94.55
2018-03-01T02:38:45.107Z,94.45
2018-03-01T02:39:44.938Z,94.45
2018-03-01T02:40:44.255Z,94.45
2018-03-01T02:41:44.817Z,94.45
2018-03-01T02:42:45.573Z,94.45
2018-03-01T02:43:45.051Z,94.55
2018-03-01T02:44:44.473Z,94.45
2018-03-01T02:45:44.754Z,94.55
2018-03-01T02:46:44.677Z,94.64
2018-03-01T02:47:45.441Z,94.55
2018-03-01T02:48:45.140Z,94.64
2018-03-01T02:49:44.927Z,94.55
2018-03-01T02:50:44.640Z,94.55
2018-03-01T02:51:46.767Z,94.55
2018-03-01T02:52:44.582Z,94.55
2018-03-01T02:53:45.212Z,94.64
2018-03-01T02:54:44.375Z,94.64
2018-03-01T02:55:45.843Z,94.55
2018-03-01T02:56:44.771Z,94.64
2018-03-01T02:57:45.301Z,94.55
2018-03-01T02:58:45.236Z,94.55
2018-03-01T02:59:45.513Z,94.64
2018-03-01T03:00:45.247Z,94.64
2018-03-01T03:01:45.002Z,94.64
2018-03-01T03:02:44.309Z,94.64
2018-03-01T03:03:44.960Z,94.74
2018-03-01T03:04:44.306Z,94.83
2018-03-01T03:05:45.010Z,94.83
2018-03-01T03:06:44.778Z,94.93
2018-03-01T03:07:45.193Z,94.93
2018-03-01T03:09:06.354Z,95.02
2018-03-01T03:10:28.597Z,95.02
2018-03-01T03:11:29.159Z,95.02
2018-03-01T03:12:28.593Z,95.02
2018-03-01T03:13:50.423Z,95.02
2018-03-01T03:14:51.285Z,95.02
2018-03-01T03:15:51.132Z,95.02
2018-03-01T03:17:12.882Z,95.02
2018-03-01T03:18:34.738Z,95.02
2018-03-01T03:19:35.252Z,95.02
2018-03-01T03:20:34.862Z,95.02
2018-03-01T03:21:35.545Z,95.11
2018-03-01T03:22:34.791Z,95.11
2018-03-01T03:25:46.572Z,95.02
2018-03-01T03:26:47.287Z,95.11
2018-03-01T03:27:47.002Z,95.11
2018-03-01T03:28:47.695Z,95.21
2018-03-01T03:29:48.821Z,95.11
2018-03-01T03:30:48.248Z,95.21
2018-03-01T03:31:46.536Z,95.21
2018-03-01T03:32:47.007Z,95.21
2018-03-01T03:34:37.110Z,95.11
2018-03-01T03:35:31.673Z,95.11
2018-03-01T03:36:31.521Z,95.11
2018-03-01T03:37:31.195Z,95.11
2018-03-01T03:38:33.033Z,95.11
2018-03-01T03:39:31.586Z,95.21
2018-03-01T03:40:30.989Z,95.21
2018-03-01T03:41:33.941Z,95.21
2018-03-01T03:42:52.964Z,95.21
2018-03-01T03:43:53.283Z,95.21
2018-03-01T03:44:52.673Z,95.11
2018-03-01T03:45:53.522Z,95.02
2018-03-01T03:46:54.055Z,95.02
2018-03-01T03:47:53.552Z,95.11
2018-03-01T03:49:14.308Z,95.21
2018-03-01T03:50:14.941Z,95.21
2018-03-01T03:51:15.242Z,95.21
2018-03-01T03:52:14.621Z,95.21
2018-03-01T03:53:14.932Z,95.21
2018-03-01T03:54:16.952Z,95.11
2018-03-01T03:55:15.371Z,95.21
2018-03-01T03:56:15.130Z,95.30
2018-03-01T03:57:14.378Z,95.30
2018-03-01T03:58:15.131Z,95.30
2018-03-01T03:59:14.589Z,95.30
2018-03-01T04:00:36.983Z,95.30
2018-03-01T04:01:37.511Z,95.30
2018-03-01T04:02:37.234Z,95.21
2018-03-01T04:03:37.631Z,95.21
2018-03-01T04:04:59.282Z,95.11
2018-03-01T04:05:59.834Z,95.02
2018-03-01T04:07:00.223Z,94.93
2018-03-01T04:08:01.096Z,94.93
2018-03-01T04:09:00.184Z,94.93
2018-03-01T04:09:59.782Z,94.83
2018-03-01T04:11:01.103Z,94.74
2018-03-01T04:11:59.984Z,94.74
2018-03-01T04:12:59.303Z,94.64
2018-03-01T04:13:59.805Z,94.74
2018-03-01T04:15:21.341Z,94.55
2018-03-01T04:16:44.862Z,94.64
2018-03-01T04:17:45.392Z,94.64
2018-03-01T04:18:44.261Z,94.64
2018-03-01T04:19:43.572Z,94.64
2018-03-01T04:20:43.541Z,94.74
2018-03-01T04:22:06.929Z,94.74
2018-03-01T04:23:07.157Z,94.64
2018-03-01T04:24:28.930Z,94.64
2018-03-01T04:25:29.776Z,94.64
2018-03-01T04:26:29.629Z,94.64
2018-03-01T04:27:30.124Z,94.55
2018-03-01T04:28:29.350Z,94.55
2018-03-01T04:29:29.142Z,94.55
2018-03-01T04:30:31.870Z,94.64
2018-03-01T04:31:29.899Z,94.74
2018-03-01T04:32:32.456Z,94.64
2018-03-01T04:33:28.746Z,94.64
2018-03-01T04:34:49.891Z,94.45
2018-03-01T04:35:50.231Z,94.55
2018-03-01T04:36:51.135Z,94.45
2018-03-01T04:37:50.336Z,94.55
2018-03-01T04:38:50.739Z,94.45
2018-03-01T04:39:50.522Z,94.45
2018-03-01T04:41:11.752Z,94.45
2018-03-01T04:42:24.966Z,94.45
2018-03-01T04:43:25.373Z,94.64
2018-03-01T04:44:25.625Z,94.55
2018-03-01T04:45:25.310Z,94.55
2018-03-01T04:46:26.189Z,94.55
2018-03-01T04:47:47.018Z,94.74
2018-03-01T04:49:09.763Z,94.64
2018-03-01T04:50:30.994Z,94.55
2018-03-01T04:51:31.286Z,94.64
2018-03-01T04:52:31.990Z,94.64
2018-03-01T04:53:31.663Z,94.64
2018-03-01T04:54:31.030Z,94.64
2018-03-01T04:55:31.646Z,94.74
2018-03-01T04:56:32.088Z,94.64
2018-03-01T04:57:31.431Z,94.64
2018-03-01T04:58:31.681Z,94.55
2018-03-01T04:59:31.267Z,94.45
2018-03-01T05:00:52.557Z,94.64
2018-03-01T05:01:53.201Z,94.64
2018-03-01T05:03:14.229Z,94.74
2018-03-01T05:04:15.040Z,94.83
2018-03-01T05:05:17.054Z,94.83
2018-03-01T05:06:14.273Z,94.83
2018-03-01T05:07:14.505Z,94.83
2018-03-01T05:08:14.070Z,94.93
2018-03-01T05:09:14.388Z,94.93
2018-03-01T05:10:15.055Z,94.93
2018-03-01T05:11:14.187Z,95.02
2018-03-01T05:12:14.464Z,94.93
2018-03-01T05:13:14.669Z,95.02
2018-03-01T05:14:14.184Z,95.02
2018-03-01T05:15:35.654Z,95.02
2018-03-01T05:16:36.016Z,95.02
2018-03-01T05:17:36.358Z,95.02
2018-03-01T05:18:35.729Z,95.02
2018-03-01T05:19:36.039Z,95.02
2018-03-01T05:20:36.832Z,95.11
2018-03-01T05:21:36.243Z,95.02
2018-03-01T05:22:57.739Z,95.02
2018-03-01T05:23:58.162Z,95.02
2018-03-01T05:24:59.928Z,95.11
2018-03-01T05:25:59.015Z,95.21
2018-03-01T05:26:58.621Z,95.21
2018-03-01T05:27:57.929Z,95.21
2018-03-01T05:28:58.858Z,95.21
2018-03-01T05:29:58.378Z,95.21
2018-03-01T05:30:58.568Z,95.11
2018-03-01T05:31:58.286Z,95.11
2018-03-01T05:32:58.744Z,95.02
2018-03-01T05:33:58.623Z,95.02
2018-03-01T05:35:20.340Z,94.93
2018-03-01T05:36:20.251Z,95.02
2018-03-01T05:37:19.804Z,95.02
2018-03-01T05:38:21.054Z,95.02
2018-03-01T05:39:20.939Z,95.02
2018-03-01T05:40:20.837Z,94.93
2018-03-01T05:41:20.443Z,94.83
2018-03-01T05:42:19.910Z,94.74
2018-03-01T05:43:21.335Z,94.74
2018-03-01T05:44:19.763Z,94.74
2018-03-01T05:45:20.184Z,94.74
2018-03-01T05:46:19.379Z,94.83
2018-03-01T05:47:41.713Z,94.93
2018-03-01T05:48:42.232Z,94.93
2018-03-01T05:49:42.091Z,95.02
2018-03-01T05:50:41.480Z,95.11
2018-03-01T05:51:41.947Z,95.11
2018-03-01T05:52:42.284Z,95.21
2018-03-01T05:53:41.803Z,95.21
2018-03-01T05:54:42.233Z,95.11
2018-03-01T05:55:42.131Z,95.11
2018-03-01T05:56:41.517Z,95.11
2018-03-01T05:57:41.908Z,95.11
2018-03-01T05:59:03.369Z,95.11
2018-03-01T06:00:04.154Z,95.11
2018-03-01T06:01:05.016Z,95.21
2018-03-01T06:02:03.309Z,95.02
2018-03-01T06:03:04.693Z,94.93
2018-03-01T06:04:24.781Z,95.02
2018-03-01T06:05:26.340Z,95.11
2018-03-01T06:06:24.973Z,95.21
2018-03-01T06:07:25.868Z,95.30
2018-03-01T06:08:25.890Z,95.30
2018-03-01T06:09:27.204Z,95.30
2018-03-01T06:10:25.013Z,95.30
2018-03-01T06:11:26.602Z,95.40
2018-03-01T06:12:25.479Z,95.49
2018-03-01T06:13:26.693Z,95.49
2018-03-01T06:14:25.854Z,95.59
2018-03-01T06:15:25.155Z,95.59
2018-03-01T06:16:25.012Z,95.59
2018-03-01T06:17:25.275Z,95.59
2018-03-01T06:18:25.101Z,95.49
2018-03-01T06:19:24.535Z,95.49
2018-03-01T06:20:25.599Z,95.59
2018-03-01T06:21:46.666Z,95.68
2018-03-01T06:22:50.921Z,95.77
2018-03-01T06:23:47.661Z,95.59
2018-03-01T06:24:47.592Z,95.68
2018-03-01T06:25:47.556Z,95.68
2018-03-01T06:26:47.219Z,95.68
2018-03-01T06:27:46.915Z,95.77
2018-03-01T06:28:47.436Z,95.68
2018-03-01T06:29:48.205Z,95.68
2018-03-01T06:30:47.597Z,95.59
2018-03-01T06:31:50.242Z,95.59
2018-03-01T06:32:47.801Z,95.49
2018-03-01T06:33:47.268Z,95.49
2018-03-01T06:34:47.031Z,95.49
2018-03-01T06:35:47.400Z,95.49
2018-03-01T06:36:47.395Z,95.40
2018-03-01T06:38:11.408Z,95.40
2018-03-01T06:39:11.014Z,95.40
2018-03-01T06:40:10.686Z,95.30
2018-03-01T06:41:11.791Z,95.21
2018-03-01T06:42:11.552Z,95.11
2018-03-01T06:43:10.942Z,95.21
2018-03-01T06:44:10.994Z,95.02
2018-03-01T06:45:10.893Z,95.02
2018-03-01T06:46:33.261Z,94.93
2018-03-01T06:47:34.018Z,95.02
2018-03-01T06:48:56.734Z,94.93
2018-03-01T06:49:58.709Z,94.93
2018-03-01T06:50:57.495Z,94.74
2018-03-01T06:51:57.281Z,94.64
2018-03-01T06:52:56.881Z,94.64
2018-03-01T06:53:56.467Z,94.41
2018-03-01T06:54:56.297Z,94.50
2018-03-01T06:55:56.126Z,94.79
2018-03-01T06:56:56.482Z,94.22
2018-03-01T06:57:57.068Z,93.94
2018-03-01T06:58:56.899Z,93.37
2018-03-01T06:59:56.439Z,92.90
2018-03-01T07:00:56.858Z,92.90
2018-03-01T07:01:56.503Z,92.43
2018-03-01T07:02:56.297Z,91.96
2018-03-01T07:03:56.247Z,91.86
2018-03-01T07:04:55.640Z,91.58
2018-03-01T07:05:56.543Z,91.58
2018-03-01T07:06:56.037Z,91.30
2018-03-01T07:07:56.539Z,91.11
2018-03-01T07:08:58.302Z,90.73
2018-03-01T07:09:56.121Z,90.55
2018-03-01T07:10:56.029Z,90.36
2018-03-01T07:11:55.868Z,90.26
2018-03-01T07:12:56.811Z,90.26
2018-03-01T07:13:56.391Z,89.65
2018-03-01T07:14:56.402Z,88.95
2018-03-01T07:15:56.837Z,88.80
2018-03-01T07:16:56.716Z,88.71
2018-03-01T07:17:56.398Z,87.95
2018-03-01T07:18:56.011Z,87.38
2018-03-01T07:19:55.503Z,87.29
2018-03-01T07:20:56.337Z,87.34
2018-03-01T07:21:55.704Z,87.91
2018-03-01T07:22:56.548Z,88.47
2018-03-01T07:23:56.137Z,88.66
2018-03-01T07:25:39.446Z,88.42
2018-03-01T07:26:39.474Z,88.00
2018-03-01T07:28:01.319Z,87.91
2018-03-01T07:29:26.065Z,88.10
2018-03-01T07:30:27.085Z,87.95
2018-03-01T07:31:51.104Z,87.95
2018-03-01T07:32:50.418Z,87.76
2018-03-01T07:33:52.882Z,87.57
2018-03-01T07:34:50.548Z,87.29
2018-03-01T07:35:50.299Z,87.10
2018-03-01T07:36:50.960Z,86.91
2018-03-01T07:37:50.434Z,86.63
2018-03-01T07:39:14.824Z,86.54
2018-03-01T07:40:15.628Z,86.54
2018-03-01T07:41:15.276Z,86.72
2018-03-01T07:42:15.670Z,86.63
2018-03-01T07:43:15.357Z,86.16
2018-03-01T07:44:36.708Z,85.31
2018-03-01T07:45:37.644Z,85.22
2018-03-01T07:47:01.263Z,84.47
2018-03-01T07:48:00.095Z,84.09
2018-03-01T07:49:01.061Z,83.99
2018-03-01T07:50:01.146Z,83.80
2018-03-01T07:51:02.676Z,83.24
2018-03-01T07:52:00.248Z,82.95
2018-03-01T07:53:00.840Z,82.58
2018-03-01T07:54:00.774Z,82.48
2018-03-01T07:55:45.409Z,82.67
2018-03-01T07:56:45.384Z,82.95
2018-03-01T07:57:45.678Z,82.67
2018-03-01T07:58:45.444Z,82.58
2018-03-01T07:59:45.603Z,82.48
2018-03-01T08:00:46.086Z,82.67
2018-03-01T08:01:46.224Z,82.67
2018-03-01T08:02:46.106Z,82.58
2018-03-01T08:03:46.139Z,82.67
2018-03-01T08:04:46.205Z,82.76
2018-03-01T08:05:46.334Z,82.95
2018-03-01T08:06:46.389Z,83.52
2018-03-01T08:07:48.096Z,83.80
2018-03-01T08:08:46.151Z,83.71
2018-03-01T08:09:46.082Z,83.99
2018-03-01T08:11:51.478Z,84.37
2018-03-01T08:12:52.026Z,84.37
2018-03-01T08:13:52.184Z,84.18
2018-03-01T08:14:51.714Z,83.90
2018-03-01T08:15:51.478Z,83.99
2018-03-01T08:16:52.253Z,83.80
2018-03-01T08:17:52.455Z,83.61
2018-03-01T08:18:51.878Z,83.80
2018-03-01T08:20:35.165Z,83.99
2018-03-01T08:21:36.150Z,84.09
2018-03-01T08:22:36.548Z,84.18
2018-03-01T08:23:38.470Z,84.28
2018-03-01T08:24:35.121Z,84.18
2018-03-01T08:25:35.770Z,84.28
2018-03-01T08:26:35.739Z,84.56
2018-03-01T08:27:35.666Z,85.03
2018-03-01T08:28:58.356Z,85.60
2018-03-01T08:29:57.469Z,85.88
2018-03-01T08:31:19.298Z,85.97
2018-03-01T08:32:20.135Z,85.97
2018-03-01T08:33:19.273Z,86.07
2018-03-01T08:34:20.862Z,86.25
2018-03-01T08:35:19.857Z,86.35
2018-03-01T08:36:19.862Z,86.07
2018-03-01T08:37:20.044Z,85.97
2018-03-01T08:38:19.889Z,85.97
2018-03-01T08:39:20.085Z,85.97
2018-03-01T08:40:18.899Z,86.25
2018-03-01T08:41:41.543Z,86.91
2018-03-01T08:42:41.774Z,86.91
2018-03-01T08:43:41.906Z,86.91
2018-03-01T08:44:43.032Z,86.82
2018-03-01T08:45:42.088Z,86.82
2018-03-01T08:46:41.440Z,86.82
2018-03-01T08:47:43.300Z,86.72
2018-03-01T08:48:42.252Z,86.35
2018-03-01T08:49:41.491Z,85.88
2018-03-01T08:50:41.434Z,85.78
2018-03-01T08:51:41.019Z,85.97
2018-03-01T08:52:41.752Z,86.25
2018-03-01T08:54:02.497Z,86.44
2018-03-01T08:55:03.270Z,86.44
2018-03-01T08:56:02.878Z,86.44
2018-03-01T08:57:02.940Z,86.25
2018-03-01T08:58:03.276Z,86.35
2018-03-01T08:59:24.445Z,86.91
2018-03-01T09:00:25.153Z,86.91
2018-03-01T09:01:31.585Z,86.44
2018-03-01T09:02:31.797Z,85.78
2018-03-01T09:03:29.366Z,85.50
2018-03-01T09:04:26.545Z,85.31
2018-03-01T09:05:26.190Z,85.13
2018-03-01T09:06:27.136Z,85.13
2018-03-01T09:07:25.746Z,84.94
2018-03-01T09:08:25.644Z,84.65
2018-03-01T09:09:26.782Z,84.47
2018-03-01T09:10:25.924Z,84.09
2018-03-01T09:11:25.074Z,83.37
2018-03-01T09:12:25.104Z,82.24
2018-03-01T09:13:24.791Z,81.21
2018-03-01T09:14:25.684Z,79.88
2018-03-01T09:15:25.301Z,79.32
2018-03-01T09:16:25.214Z,78.60
2018-03-01T09:17:26.222Z,77.56
2018-03-01T09:18:25.070Z,76.53
2018-03-01T09:19:24.772Z,75.02
2018-03-01T09:20:25.632Z,73.88
2018-03-01T09:21:25.899Z,73.36
2018-03-01T09:22:24.981Z,72.66
2018-03-01T09:23:25.429Z,72.66
2018-03-01T09:24:25.102Z,72.47
2018-03-01T09:25:25.158Z,72.22
2018-03-01T09:26:25.324Z,71.94
2018-03-01T09:27:25.205Z,71.56
2018-03-01T09:28:25.114Z,71.28
2018-03-01T09:29:24.743Z,70.90
2018-03-01T09:30:25.195Z,70.53
2018-03-01T09:31:25.374Z,70.24
2018-03-01T09:32:25.050Z,69.86
2018-03-01T09:33:47.206Z,70.00
2018-03-01T09:34:47.844Z,68.95
2018-03-01T09:35:47.729Z,67.91
2018-03-01T09:37:53.393Z,66.69
2018-03-01T09:38:54.244Z,66.78
2018-03-01T09:39:54.351Z,67.16
2018-03-01T09:41:15.541Z,67.35
2018-03-01T09:42:16.619Z,67.16
2018-03-01T09:43:16.226Z,66.88
2018-03-01T09:44:16.441Z,66.50
2018-03-01T09:45:16.797Z,66.59
2018-03-01T09:46:15.331Z,66.59
2018-03-01T09:47:38.925Z,66.50
2018-03-01T09:49:00.601Z,66.09
2018-03-01T09:50:01.146Z,66.28
2018-03-01T09:51:00.781Z,66.65
2018-03-01T09:52:02.510Z,66.97
2018-03-01T09:53:01.628Z,67.07
2018-03-01T09:54:03.632Z,66.59
2018-03-01T09:55:01.188Z,66.31
2018-03-01T09:56:00.719Z,66.31
2018-03-01T09:57:01.551Z,66.22
2018-03-01T09:58:01.160Z,66.03
2018-03-01T09:59:01.888Z,65.74
2018-03-01T10:00:00.651Z,65.84
2018-03-01T10:01:01.739Z,65.84
2018-03-01T10:02:00.556Z,65.40
2018-03-01T10:03:01.578Z,64.92
2018-03-01T10:04:01.172Z,64.26
2018-03-01T10:05:00.867Z,63.85
2018-03-01T10:06:00.569Z,63.95
2018-03-01T10:07:01.549Z,64.23
2018-03-01T10:08:01.692Z,64.42
2018-03-01T10:09:02.096Z,64.61
2018-03-01T10:10:02.045Z,64.61
2018-03-01T10:11:01.430Z,64.61
2018-03-01T10:12:23.281Z,64.79
2018-03-01T10:13:24.044Z,64.89
2018-03-01T10:14:23.165Z,64.79
2018-03-01T10:15:45.976Z,64.23
2018-03-01T10:16:46.079Z,64.14
2018-03-01T10:17:46.046Z,64.23
2018-03-01T10:18:46.224Z,64.14
2018-03-01T10:19:46.454Z,64.26
2018-03-01T10:20:46.396Z,63.89
2018-03-01T10:21:45.979Z,63.51
2018-03-01T10:22:45.562Z,63.13
2018-03-01T10:23:46.800Z,62.56
2018-03-01T10:25:08.337Z,62.56
2018-03-01T10:26:08.929Z,62.62
2018-03-01T10:27:08.733Z,63.19
2018-03-01T10:28:09.377Z,63.76
2018-03-01T10:29:09.810Z,63.98
2018-03-01T10:30:08.399Z,63.42
2018-03-01T10:31:09.345Z,62.50
2018-03-01T10:32:08.979Z,61.65
2018-03-01T10:33:09.033Z,60.96
2018-03-01T10:34:09.150Z,60.96
2018-03-01T10:35:09.439Z,61.49
2018-03-01T10:36:09.625Z,62.28
2018-03-01T10:37:08.512Z,62.47
2018-03-01T10:38:09.047Z,62.37
2018-03-01T10:39:08.954Z,63.13
2018-03-01T10:40:08.847Z,62.56
2018-03-01T10:41:08.820Z,61.71
2018-03-01T10:42:08.378Z,61.43
2018-03-01T10:43:30.559Z,61.61
2018-03-01T10:44:53.502Z,61.90
2018-03-01T10:45:53.391Z,61.71
2018-03-01T10:46:53.283Z,61.71
2018-03-01T10:48:15.368Z,61.33
2018-03-01T10:49:15.379Z,61.43
2018-03-01T10:50:15.123Z,61.43
2018-03-01T10:51:14.812Z,61.71
2018-03-01T10:52:16.450Z,61.52
2018-03-01T10:53:14.902Z,61.43
2018-03-01T10:54:15.373Z,61.36
2018-03-01T10:55:15.564Z,61.18
2018-03-01T10:56:16.066Z,60.99
2018-03-01T10:57:15.904Z,60.55
2018-03-01T10:58:15.834Z,59.60
2018-03-01T10:59:15.335Z,58.65
2018-03-01T11:00:37.531Z,58.25
2018-03-01T11:01:58.931Z,58.72
2018-03-01T11:03:21.677Z,58.81
2018-03-01T11:04:21.785Z,58.97
2018-03-01T11:05:21.452Z,59.54
2018-03-01T11:06:21.147Z,60.01
2018-03-01T11:07:44.154Z,60.39
2018-03-01T11:08:44.003Z,60.80
2018-03-01T11:09:43.832Z,60.70
2018-03-01T11:10:44.686Z,59.57
2018-03-01T11:12:05.894Z,59.63
2018-03-01T11:13:06.416Z,59.85
2018-03-01T11:14:06.065Z,59.66
2018-03-01T11:15:05.646Z,59.35
2018-03-01T11:16:06.797Z,59.54
2018-03-01T11:17:29.152Z,60.20
2018-03-01T11:18:51.603Z,60.67
2018-03-01T11:19:52.693Z,60.49
2018-03-01T11:20:52.405Z,60.33
2018-03-01T11:22:13.209Z,59.82
2018-03-01T11:23:13.645Z,60.11
2018-03-01T11:24:34.901Z,60.52
2018-03-01T11:25:35.916Z,60.33
2018-03-01T11:26:56.996Z,59.66
2018-03-01T11:27:57.687Z,59.19
2018-03-01T11:28:57.408Z,59.35
2018-03-01T11:30:19.452Z,59.63
2018-03-01T11:31:20.524Z,59.76
2018-03-01T11:32:21.863Z,59.47
2018-03-01T11:33:19.623Z,59.09
2018-03-01T11:34:20.315Z,58.81
2018-03-01T11:35:20.348Z,58.91
2018-03-01T11:36:20.026Z,58.72
2018-03-01T11:37:19.710Z,58.53
2018-03-01T11:38:20.180Z,58.34
2018-03-01T11:39:20.025Z,58.15
2018-03-01T11:40:21.145Z,58.25
2018-03-01T11:41:20.629Z,58.31
2018-03-01T11:42:20.955Z,58.78
2018-03-01T11:43:20.098Z,59.19
2018-03-01T11:44:19.709Z,59.19
2018-03-01T11:45:20.254Z,59.09
2018-03-01T11:46:19.823Z,59.19
2018-03-01T11:47:21.703Z,58.91
2018-03-01T11:48:21.240Z,58.47
2018-03-01T11:49:20.230Z,57.80
2018-03-01T11:50:19.809Z,57.23
2018-03-01T11:51:20.571Z,57.04
2018-03-01T11:52:20.929Z,56.57
2018-03-01T11:53:20.704Z,56.92
2018-03-01T11:54:20.738Z,57.39
2018-03-01T11:55:20.945Z,57.77
2018-03-01T11:56:20.666Z,57.68
2018-03-01T11:57:20.374Z,57.96
2018-03-01T11:58:42.272Z,57.87
2018-03-01T11:59:42.378Z,58.25
2018-03-01T12:01:04.322Z,58.47
2018-03-01T12:02:03.940Z,57.42
2018-03-01T12:03:26.593Z,56.67
2018-03-01T12:04:27.218Z,56.82
2018-03-01T12:05:27.910Z,57.52
2018-03-01T12:06:50.487Z,56.95
2018-03-01T12:07:49.566Z,56.76
2018-03-01T12:08:49.484Z,56.32
2018-03-01T12:09:49.500Z,56.03
2018-03-01T12:10:50.223Z,55.84
2018-03-01T12:11:50.263Z,55.46
2018-03-01T12:12:50.098Z,54.99
2018-03-01T12:13:49.643Z,55.06
2018-03-01T12:14:49.892Z,55.63
2018-03-01T12:15:50.243Z,55.91
2018-03-01T12:16:49.376Z,55.88
2018-03-01T12:17:49.307Z,56.10
2018-03-01T12:18:49.245Z,56.20
2018-03-01T12:19:48.765Z,56.16
2018-03-01T12:20:50.529Z,56.92
2018-03-01T12:21:50.961Z,57.14
2018-03-01T12:22:50.484Z,57.23
2018-03-01T12:23:49.743Z,57.33
2018-03-01T12:24:50.342Z,56.48
2018-03-01T12:25:50.730Z,56.01
2018-03-01T12:27:11.249Z,56.20
2018-03-01T12:28:11.982Z,56.22
2018-03-01T12:29:11.740Z,55.53
2018-03-01T12:30:11.538Z,55.34
2018-03-01T12:31:11.393Z,55.34
2018-03-01T12:32:57.188Z,55.63
2018-03-01T12:33:58.268Z,55.94
2018-03-01T12:34:58.728Z,55.44
2018-03-01T12:35:57.265Z,55.56
2018-03-01T12:36:58.197Z,55.18
2018-03-01T12:37:58.571Z,54.52
2018-03-01T12:39:00.361Z,54.11
2018-03-01T12:39:59.220Z,54.39
2018-03-01T12:40:58.813Z,54.52
2018-03-01T12:41:57.303Z,54.33
2018-03-01T12:42:58.114Z,54.04
2018-03-01T12:43:58.758Z,53.92
2018-03-01T12:44:57.529Z,54.55
2018-03-01T12:45:57.603Z,55.60
2018-03-01T12:46:59.157Z,56.35
2018-03-01T12:48:20.781Z,56.76
2018-03-01T12:49:20.319Z,56.76
2018-03-01T12:50:20.807Z,56.73
2018-03-01T12:51:20.501Z,57.01
2018-03-01T12:52:20.072Z,56.92
2018-03-01T12:53:42.620Z,56.92
2018-03-01T12:55:05.330Z,57.39
2018-03-01T12:56:05.343Z,57.68
2018-03-01T12:57:06.390Z,57.20
2018-03-01T12:58:05.543Z,57.30
2018-03-01T12:59:05.524Z,57.14
2018-03-01T13:00:05.249Z,56.73
2018-03-01T13:01:05.427Z,56.95
2018-03-01T13:02:04.928Z,56.92
2018-03-01T13:03:05.550Z,57.11
2018-03-01T13:04:06.156Z,57.01
2018-03-01T13:05:07.063Z,56.92
2018-03-01T13:06:06.373Z,57.20
2018-03-01T13:07:05.677Z,57.39
2018-03-01T13:08:26.814Z,57.77
2018-03-01T13:09:49.510Z,58.15
2018-03-01T13:10:51.266Z,58.12
2018-03-01T13:11:50.041Z,58.25
2018-03-01T13:12:50.600Z,58.44
2018-03-01T13:13:51.038Z,58.72
2018-03-01T13:14:50.001Z,58.44
2018-03-01T13:15:53.197Z,58.15
2018-03-01T13:16:50.452Z,57.87
2018-03-01T13:17:50.336Z,57.58
2018-03-01T13:18:53.565Z,57.68
2018-03-01T13:19:50.148Z,58.06
2018-03-01T13:20:51.101Z,58.15
2018-03-01T13:21:50.738Z,58.25
2018-03-01T13:22:50.741Z,57.96
2018-03-01T13:23:50.324Z,58.15
2018-03-01T13:24:53.725Z,58.34
2018-03-01T13:25:58.269Z,58.40
2018-03-01T13:27:19.847Z,58.78
2018-03-01T13:28:17.934Z,59.06
2018-03-01T13:29:16.591Z,59.06
2018-03-01T13:30:15.938Z,58.97
2018-03-01T13:31:17.382Z,59.06
2018-03-01T13:32:18.084Z,59.16
2018-03-01T13:33:24.219Z,59.00
2018-03-01T13:34:16.953Z,59.00